Time;durP1;ratioP1;P1;durP2;ratioP2;P2;SDS_P1;SDS_P2;PMS_P1;PMS_P2;Temp;Humidity;BMP_temperature;BMP_pressure;BME280_temperature;BME280_humidity;BME280_pressure;Samples;Min_cycle;Max_cycle;Signal;HPM_P1;HPM_P2
2022/03/28 00:02:26;;;;;;;;;;;5.00;99.90;;;;;;5271871;28;19904;-77
2022/03/28 00:04:57;;;;;;;;;;;5.00;99.90;;;;;;5271823;28;19998;-77
2022/03/28 00:07:27;;;;;;;;;;;5.20;99.90;;;;;;5271778;28;19904;-77
2022/03/28 00:09:58;;;;;;;;;;;5.20;99.90;;;;;;5271720;28;19911;-76
2022/03/28 00:12:29;;;;;;;;;;;4.90;99.90;;;;;;5271669;28;19904;-75
2022/03/28 00:15:00;;;;;;;;;;;4.50;99.90;;;;;;5271729;28;19903;-76
2022/03/28 00:17:32;;;;;;;;;;;4.60;99.90;;;;;;5271536;28;19916;-76
2022/03/28 00:20:04;;;;;;;;;;;4.40;99.90;;;;;;5271536;28;19904;-75
2022/03/28 00:22:35;;;;;;;;;;;4.60;99.90;;;;;;5271553;28;19951;-76
2022/03/28 00:25:08;;;;;;;;;;;4.60;99.90;;;;;;5271299;28;20380;-76
2022/03/28 00:27:39;;;;;;;;;;;4.70;99.90;;;;;;5271486;28;20060;-77
2022/03/28 00:30:10;;;;;;;;;;;4.10;99.90;;;;;;5271327;28;20006;-77
2022/03/28 00:32:41;;;;;;;;;;;4.10;99.90;;;;;;5271449;28;19904;-78
2022/03/28 00:35:11;;;;;;;;;;;4.00;99.90;;;;;;5271182;28;19908;-75
2022/03/28 00:37:42;;;;;;;;;;;4.00;99.90;;;;;;5271030;28;20018;-78
2022/03/28 00:40:13;;;;;;;;;;;3.90;99.90;;;;;;5270995;28;20052;-78
2022/03/28 00:42:45;;;;;;;;;;;3.80;99.90;;;;;;5270897;28;19904;-76
2022/03/28 00:45:16;;;;;;;;;;;3.80;99.90;;;;;;5270882;28;19907;-76
2022/03/28 00:47:46;;;;;;;;;;;4.30;99.90;;;;;;5269598;28;19904;-76
2022/03/28 00:50:17;;;;;;;;;;;4.40;99.90;;;;;;5270899;28;19904;-77
2022/03/28 00:52:48;;;;;;;;;;;4.10;99.90;;;;;;5270920;28;19911;-76
2022/03/28 00:55:18;;;;;;;;;;;4.10;99.90;;;;;;5270491;28;19904;-77
2022/03/28 00:57:49;;;;;;;;;;;4.00;99.90;;;;;;5270646;28;19959;-77
2022/03/28 01:00:21;;;;;;;;;;;4.00;99.90;;;;;;5270653;28;19947;-76
2022/03/28 01:02:52;;;;;;;;;;;4.40;99.90;;;;;;5270315;28;20005;-76
2022/03/28 01:05:22;;;;;;;;;;;4.00;99.90;;;;;;5268705;28;19943;-76
2022/03/28 01:07:55;;;;;;;;;;;4.10;99.90;;;;;;5270431;28;20341;-76
2022/03/28 01:10:26;;;;;;;;;;;3.70;99.90;;;;;;5270503;28;20249;-77
2022/03/28 01:12:57;;;;;;;;;;;3.50;99.90;;;;;;5270330;28;19911;-76
2022/03/28 01:15:28;;;;;;;;;;;3.70;99.90;;;;;;5270502;28;19903;-76
2022/03/28 01:18:09;;;;;;;;;;;4.00;99.90;;;;;;5270264;28;19912;-76
2022/03/28 01:20:40;;;;;;;;;;;4.10;99.90;;;;;;5270481;28;19908;-76
2022/03/28 01:23:11;;;;;;;;;;;3.90;99.90;;;;;;5268888;28;20296;-77
2022/03/28 01:25:43;;;;;;;;;;;3.90;99.90;;;;;;5270207;28;19912;-77
2022/03/28 01:28:15;;;;;;;;;;;4.10;99.90;;;;;;5270207;28;19908;-77
2022/03/28 01:30:46;;;;;;;;;;;4.30;99.90;;;;;;5270132;28;19912;-75
2022/03/28 01:33:17;;;;;;;;;;;3.80;99.90;;;;;;5268816;28;19904;-80
2022/03/28 01:35:48;;;;;;;;;;;3.60;99.90;;;;;;5268841;28;19983;-77
2022/03/28 01:38:19;;;;;;;;;;;3.50;99.90;;;;;;5269859;28;19934;-77
2022/03/28 01:40:51;;;;;;;;;;;3.60;99.90;;;;;;5270296;28;19904;-75
2022/03/28 01:43:23;;;;;;;;;;;3.50;99.90;;;;;;5269937;28;19958;-77
2022/03/28 01:45:54;;;;;;;;;;;3.50;99.90;;;;;;5268837;28;19936;-75
2022/03/28 01:48:25;;;;;;;;;;;3.40;99.90;;;;;;5268698;28;19947;-76
2022/03/28 01:50:55;;;;;;;;;;;3.50;99.90;;;;;;5268579;28;19957;-76
2022/03/28 01:53:26;;;;;;;;;;;3.60;99.90;;;;;;5269796;28;19904;-76
2022/03/28 01:55:57;;;;;;;;;;;3.90;99.90;;;;;;5269431;28;19961;-78
2022/03/28 01:58:27;;;;;;;;;;;3.70;99.90;;;;;;5268478;28;19916;-76
2022/03/28 02:00:58;;;;;;;;;;;3.20;99.90;;;;;;5269725;28;19905;-75
2022/03/28 02:03:28;;;;;;;;;;;3.20;99.90;;;;;;5269748;28;19904;-77
2022/03/28 02:05:59;;;;;;;;;;;3.60;99.90;;;;;;5269848;28;19911;-77
2022/03/28 02:08:32;;;;;;;;;;;3.60;99.90;;;;;;5269759;28;19904;-78
2022/03/28 02:11:02;;;;;;;;;;;3.20;99.90;;;;;;5269606;28;20295;-77
2022/03/28 02:13:33;;;;;;;;;;;3.20;99.90;;;;;;5268430;28;19910;-77
2022/03/28 02:16:04;;;;;;;;;;;2.90;99.90;;;;;;5272272;28;19910;-77
2022/03/28 02:18:35;;;;;;;;;;;2.70;99.90;;;;;;5273901;28;19912;-77
2022/03/28 02:21:06;;;;;;;;;;;2.90;99.90;;;;;;5272649;28;19991;-77
2022/03/28 02:23:36;;;;;;;;;;;2.90;99.90;;;;;;5273906;28;20011;-77
2022/03/28 02:26:07;;;;;;;;;;;3.10;99.90;;;;;;5273715;28;19908;-76
2022/03/28 02:28:38;;;;;;;;;;;3.30;99.90;;;;;;5272512;28;19908;-76
2022/03/28 02:31:10;;;;;;;;;;;2.90;99.90;;;;;;5272417;28;19904;-76
2022/03/28 02:33:40;;;;;;;;;;;3.00;99.90;;;;;;5273720;28;19911;-77
2022/03/28 02:36:11;;;;;;;;;;;2.50;99.90;;;;;;5273619;28;20314;-77
2022/03/28 02:38:42;;;;;;;;;;;2.70;99.90;;;;;;5273392;28;20367;-78
2022/03/28 02:41:13;;;;;;;;;;;2.60;99.90;;;;;;5274187;28;19912;-77
2022/03/28 02:43:43;;;;;;;;;;;2.80;99.90;;;;;;5272137;28;19991;-77
2022/03/28 02:46:14;;;;;;;;;;;2.70;99.90;;;;;;5273452;28;20378;-77
2022/03/28 02:48:45;;;;;;;;;;;2.80;99.90;;;;;;5273365;28;20352;-77
2022/03/28 02:51:15;;;;;;;;;;;2.50;99.90;;;;;;5273316;28;20310;-77
2022/03/28 02:53:46;;;;;;;;;;;2.60;99.90;;;;;;5271845;28;19911;-77
2022/03/28 02:56:17;;;;;;;;;;;2.40;99.90;;;;;;5271720;28;19916;-77
2022/03/28 02:58:48;;;;;;;;;;;2.70;99.90;;;;;;5273043;28;19967;-76
2022/03/28 03:01:19;;;;;;;;;;;2.70;99.90;;;;;;5273237;28;19904;-75
2022/03/28 03:03:50;;;;;;;;;;;2.40;99.90;;;;;;5273038;28;19950;-77
2022/03/28 03:06:20;;;;;;;;;;;2.50;99.90;;;;;;5271776;28;19908;-76
2022/03/28 03:08:51;;;;;;;;;;;2.60;99.90;;;;;;5273010;28;19950;-76
2022/03/28 03:11:22;;;;;;;;;;;2.60;99.90;;;;;;5272932;28;19994;-77
2022/03/28 03:13:56;;;;;;;;;;;2.50;99.90;;;;;;5272801;28;19915;-77
2022/03/28 03:16:27;;;;;;;;;;;2.60;99.90;;;;;;5272843;28;20329;-77
2022/03/28 03:18:57;;;;;;;;;;;2.70;99.90;;;;;;5272713;28;19918;-77
2022/03/28 03:21:28;;;;;;;;;;;2.20;99.90;;;;;;5271430;28;20352;-77
2022/03/28 03:23:59;;;;;;;;;;;2.20;99.90;;;;;;5272938;28;19956;-76
2022/03/28 03:26:30;;;;;;;;;;;2.50;99.90;;;;;;5270256;28;19908;-77
2022/03/28 03:29:00;;;;;;;;;;;2.20;99.90;;;;;;5272569;28;19944;-75
2022/03/28 03:31:31;;;;;;;;;;;2.20;99.90;;;;;;5272433;28;19974;-76
2022/03/28 03:34:02;;;;;;;;;;;2.00;99.90;;;;;;5272513;28;20385;-77
2022/03/28 03:36:33;;;;;;;;;;;2.30;99.90;;;;;;5272685;28;19911;-76
2022/03/28 03:39:04;;;;;;;;;;;2.30;99.90;;;;;;5272245;28;20374;-76
2022/03/28 03:41:34;;;;;;;;;;;2.10;99.90;;;;;;5272312;28;19953;-76
2022/03/28 03:44:06;;;;;;;;;;;1.80;99.90;;;;;;5272133;28;20410;-76
2022/03/28 03:46:37;;;;;;;;;;;2.00;99.90;;;;;;5272169;28;20363;-76
2022/03/28 03:49:08;;;;;;;;;;;1.90;99.90;;;;;;5272101;28;19911;-76
2022/03/28 03:51:39;;;;;;;;;;;2.00;99.90;;;;;;5272106;28;19911;-77
2022/03/28 03:54:10;;;;;;;;;;;1.80;99.90;;;;;;5272058;28;19904;-76
2022/03/28 03:56:41;;;;;;;;;;;1.80;99.90;;;;;;5271751;28;19919;-76
2022/03/28 03:59:12;;;;;;;;;;;2.00;99.90;;;;;;5271945;28;19919;-75
2022/03/28 04:01:42;;;;;;;;;;;2.20;99.90;;;;;;5271990;28;19914;-76
2022/03/28 04:04:13;;;;;;;;;;;1.80;99.90;;;;;;5270549;28;20410;-76
2022/03/28 04:06:44;;;;;;;;;;;1.60;99.90;;;;;;5271796;28;19926;-76
2022/03/28 04:09:15;;;;;;;;;;;1.70;99.90;;;;;;5271699;28;19904;-75
2022/03/28 04:11:45;;;;;;;;;;;1.90;99.90;;;;;;5271733;28;19904;-76
2022/03/28 04:14:16;;;;;;;;;;;2.30;99.90;;;;;;5271657;28;20417;-75
2022/03/28 04:16:46;;;;;;;;;;;2.10;99.90;;;;;;5271526;28;19904;-77
2022/03/28 04:19:17;;;;;;;;;;;2.20;99.90;;;;;;5271265;28;19911;-76
2022/03/28 04:21:48;;;;;;;;;;;1.80;99.90;;;;;;5271581;28;19908;-76
2022/03/28 04:24:20;;;;;;;;;;;1.70;99.90;;;;;;5271489;28;19926;-76
2022/03/28 04:26:51;;;;;;;;;;;1.70;99.90;;;;;;5271389;28;19908;-76
2022/03/28 04:29:21;;;;;;;;;;;1.80;99.90;;;;;;5270132;28;20397;-76
2022/03/28 04:31:52;;;;;;;;;;;1.80;99.90;;;;;;5271313;28;19908;-76
2022/03/28 04:34:22;;;;;;;;;;;2.10;99.90;;;;;;5271207;28;19991;-76
2022/03/28 04:36:53;;;;;;;;;;;2.10;99.90;;;;;;5271104;28;19908;-75
2022/03/28 04:39:24;;;;;;;;;;;2.20;99.90;;;;;;5270876;28;19927;-75
2022/03/28 04:41:54;;;;;;;;;;;2.30;99.90;;;;;;5269762;28;20382;-76
2022/03/28 04:44:25;;;;;;;;;;;2.30;99.90;;;;;;5270993;28;20363;-76
2022/03/28 04:46:56;;;;;;;;;;;2.60;99.90;;;;;;5271170;28;19904;-78
2022/03/28 04:49:26;;;;;;;;;;;2.20;99.90;;;;;;5271200;28;20729;-78
2022/03/28 04:51:57;;;;;;;;;;;2.10;99.90;;;;;;5270926;28;20245;-76
2022/03/28 04:54:28;;;;;;;;;;;2.60;99.90;;;;;;5269597;28;19904;-77
2022/03/28 04:56:58;;;;;;;;;;;2.60;99.90;;;;;;5270450;28;20011;-77
2022/03/28 04:59:29;;;;;;;;;;;2.90;99.90;;;;;;5269350;28;20014;-76
2022/03/28 05:02:00;;;;;;;;;;;2.80;99.90;;;;;;5270842;28;19935;-77
2022/03/28 05:04:31;;;;;;;;;;;2.80;99.90;;;;;;5270641;28;20268;-76
2022/03/28 05:07:01;;;;;;;;;;;3.30;99.90;;;;;;5269288;28;19940;-76
2022/03/28 05:09:32;;;;;;;;;;;3.10;99.90;;;;;;5270778;28;20418;-76
2022/03/28 05:12:03;;;;;;;;;;;3.40;99.90;;;;;;5270728;28;20037;-77
2022/03/28 05:14:34;;;;;;;;;;;3.30;99.90;;;;;;5270478;28;19904;-76
2022/03/28 05:17:05;;;;;;;;;;;3.50;99.90;;;;;;5270030;28;20442;-76
2022/03/28 05:19:36;;;;;;;;;;;3.10;99.90;;;;;;5269952;28;19904;-78
2022/03/28 05:22:07;;;;;;;;;;;3.50;99.90;;;;;;5295444;27;20304;-76
2022/03/28 05:24:38;;;;;;;;;;;3.80;99.90;;;;;;5305429;27;19998;-77
2022/03/28 05:27:08;;;;;;;;;;;3.70;99.90;;;;;;5292867;27;20063;-80
2022/03/28 05:29:39;;;;;;;;;;;4.20;99.90;;;;;;5295537;27;19907;-77
2022/03/28 05:32:10;;;;;;;;;;;4.00;99.90;;;;;;5297650;27;20247;-77
2022/03/28 05:34:41;;;;;;;;;;;4.00;99.90;;;;;;5299383;27;19945;-78
2022/03/28 05:37:13;;;;;;;;;;;4.40;99.90;;;;;;5303895;27;20403;-78
2022/03/28 05:39:44;;;;;;;;;;;4.50;99.90;;;;;;5312358;27;20040;-77
2022/03/28 05:42:16;;;;;;;;;;;4.70;99.90;;;;;;5305362;27;19904;-81
2022/03/28 05:44:47;;;;;;;;;;;4.90;99.90;;;;;;5300255;27;19934;-80
2022/03/28 05:47:18;;;;;;;;;;;5.30;99.90;;;;;;5305628;27;19972;-83
2022/03/28 05:49:49;;;;;;;;;;;5.10;99.90;;;;;;5310088;27;19904;-77
2022/03/28 05:52:19;;;;;;;;;;;5.40;99.90;;;;;;5312186;27;19915;-77
2022/03/28 05:54:50;;;;;;;;;;;5.70;99.90;;;;;;5311077;27;19903;-86
2022/03/28 05:57:20;;;;;;;;;;;5.90;99.90;;;;;;5311912;27;19919;-76
2022/03/28 05:59:51;;;;;;;;;;;6.20;99.90;;;;;;5307680;27;19915;-78
2022/03/28 06:02:22;;;;;;;;;;;6.00;99.90;;;;;;5290976;28;19907;-77
2022/03/28 06:04:52;;;;;;;;;;;6.20;99.90;;;;;;5290811;28;19908;-76
2022/03/28 06:07:23;;;;;;;;;;;7.00;99.90;;;;;;5280955;28;19904;-77
2022/03/28 06:09:54;;;;;;;;;;;7.20;99.90;;;;;;5269531;28;19912;-78
2022/03/28 06:12:24;;;;;;;;;;;7.10;99.90;;;;;;5269650;28;19904;-76
2022/03/28 06:14:55;;;;;;;;;;;7.80;99.90;;;;;;5269400;28;19946;-78
2022/03/28 06:17:26;;;;;;;;;;;8.00;99.90;;;;;;5269525;28;20260;-81
2022/03/28 06:19:57;;;;;;;;;;;8.10;99.90;;;;;;5269341;28;19914;-82
2022/03/28 06:22:27;;;;;;;;;;;8.60;99.90;;;;;;5269749;28;19904;-77
2022/03/28 06:24:59;;;;;;;;;;;8.70;99.90;;;;;;5269415;28;19908;-76
2022/03/28 06:27:30;;;;;;;;;;;8.90;99.90;;;;;;5271324;28;20371;-79
2022/03/28 06:30:01;;;;;;;;;;;8.80;99.90;;;;;;5298451;28;20266;-78
2022/03/28 06:32:31;;;;;;;;;;;9.00;99.90;;;;;;5298757;28;19903;-77
2022/03/28 06:35:04;;;;;;;;;;;9.40;99.90;;;;;;5301080;28;20258;-78
2022/03/28 06:37:36;;;;;;;;;;;9.30;99.90;;;;;;5298917;28;19911;-77
2022/03/28 06:40:08;;;;;;;;;;;9.90;99.90;;;;;;5299288;27;19908;-79
2022/03/28 06:42:39;;;;;;;;;;;9.90;99.90;;;;;;5299536;28;19998;-81
2022/03/28 06:45:10;;;;;;;;;;;10.30;99.90;;;;;;5304054;27;20010;-77
2022/03/28 06:47:41;;;;;;;;;;;10.20;99.90;;;;;;5309705;28;20006;-76
2022/03/28 06:50:12;;;;;;;;;;;10.30;99.90;;;;;;5311648;27;19994;-77
2022/03/28 06:52:42;;;;;;;;;;;10.90;99.90;;;;;;5311595;27;19903;-77
2022/03/28 06:55:13;;;;;;;;;;;11.00;99.90;;;;;;5294910;27;19914;-77
2022/03/28 06:57:44;;;;;;;;;;;10.90;99.90;;;;;;5288927;28;19915;-77
2022/03/28 07:00:14;;;;;;;;;;;10.80;99.90;;;;;;5291489;28;19904;-77
2022/03/28 07:02:45;;;;;;;;;;;10.80;99.90;;;;;;5315046;27;19946;-80
2022/03/28 07:05:16;;;;;;;;;;;10.30;99.90;;;;;;5315441;27;19949;-77
2022/03/28 07:07:48;;;;;;;;;;;10.90;99.90;;;;;;5315128;27;20346;-76
2022/03/28 07:10:20;;;;;;;;;;;10.90;99.90;;;;;;5315314;27;19910;-82
2022/03/28 07:12:53;;;;;;;;;;;11.30;99.90;;;;;;5314045;27;19994;-78
2022/03/28 07:15:24;;;;;;;;;;;11.50;99.90;;;;;;5315328;27;20414;-78
2022/03/28 07:18:02;;;;;;;;;;;11.70;99.90;;;;;;5314626;27;20009;-78
2022/03/28 07:20:33;;;;;;;;;;;11.60;99.90;;;;;;5305519;27;20354;-78
2022/03/28 07:23:04;;;;;;;;;;;12.10;99.90;;;;;;5298544;27;19957;-76
2022/03/28 07:25:36;;;;;;;;;;;12.30;99.90;;;;;;5301424;27;19942;-78
2022/03/28 07:28:08;;;;;;;;;;;12.00;99.90;;;;;;5307196;27;20359;-77
2022/03/28 07:30:51;;;;;;;;;;;;;;;;;;;;;
2022/03/28 07:33:24;;;;;;;;;;;12.60;99.90;;;;;;5301719;27;19908;-82
2022/03/28 07:35:56;;;;;;;;;;;12.90;99.90;;;;;;5306554;27;19903;-80
2022/03/28 07:38:28;;;;;;;;;;;13.20;99.90;;;;;;5299529;27;20006;-77
2022/03/28 07:41:01;;;;;;;;;;;13.00;99.90;;;;;;5304838;27;19904;-80
2022/03/28 07:43:32;;;;;;;;;;;13.30;99.90;;;;;;5299698;27;20433;-79
2022/03/28 07:46:03;;;;;;;;;;;13.70;99.90;;;;;;5305865;27;20408;-76
2022/03/28 07:48:34;;;;;;;;;;;13.40;99.90;;;;;;5309568;27;19907;-76
2022/03/28 07:51:04;;;;;;;;;;;13.70;99.90;;;;;;5303617;27;19904;-79
2022/03/28 07:53:37;;;;;;;;;;;13.90;99.90;;;;;;5314517;27;19942;-75
2022/03/28 07:56:08;;;;;;;;;;;13.60;99.90;;;;;;5304332;27;20572;-79
2022/03/28 07:58:39;;;;;;;;;;;14.10;99.90;;;;;;5301684;27;20013;-78
2022/03/28 08:01:09;;;;;;;;;;;14.30;99.90;;;;;;5310118;27;20426;-78
2022/03/28 08:03:40;;;;;;;;;;;14.40;99.90;;;;;;5299887;27;19922;-79
2022/03/28 08:06:10;;;;;;;;;;;14.50;99.90;;;;;;5312801;27;19957;-78
2022/03/28 08:08:41;;;;;;;;;;;14.50;99.90;;;;;;5314179;27;19928;-78
2022/03/28 08:11:12;;;;;;;;;;;14.70;99.90;;;;;;5313964;27;19968;-77
2022/03/28 08:13:43;;;;;;;;;;;14.60;99.90;;;;;;5313649;27;20270;-78
2022/03/28 08:16:14;;;;;;;;;;;14.90;99.90;;;;;;5314104;27;19903;-78
2022/03/28 08:18:44;;;;;;;;;;;15.00;99.90;;;;;;5313886;27;19971;-78
2022/03/28 08:21:15;;;;;;;;;;;15.30;99.90;;;;;;5313909;27;19955;-79
2022/03/28 08:23:45;;;;;;;;;;;15.30;99.90;;;;;;5314041;27;19903;-78
2022/03/28 08:26:16;;;;;;;;;;;15.40;99.90;;;;;;5312424;27;19908;-78
2022/03/28 08:28:47;;;;;;;;;;;15.50;99.90;;;;;;5312461;27;19908;-78
2022/03/28 08:31:18;;;;;;;;;;;15.50;99.90;;;;;;5313654;27;20378;-78
2022/03/28 08:33:49;;;;;;;;;;;15.00;99.90;;;;;;5313936;27;20256;-78
2022/03/28 08:36:20;;;;;;;;;;;14.90;99.90;;;;;;5312509;27;19945;-78
2022/03/28 08:38:51;;;;;;;;;;;15.50;99.90;;;;;;5313584;27;20235;-78
2022/03/28 08:41:25;;;;;;;;;;;15.50;99.90;;;;;;5312188;27;19976;-78
2022/03/28 08:43:56;;;;;;;;;;;15.90;99.90;;;;;;5313435;27;19904;-78
2022/03/28 08:46:30;;;;;;;;;;;15.60;99.90;;;;;;5312113;27;20275;-78
2022/03/28 08:49:01;;;;;;;;;;;15.60;99.90;;;;;;5312669;27;20382;-78
2022/03/28 08:51:31;;;;;;;;;;;15.40;99.90;;;;;;5313249;27;19903;-78
2022/03/28 08:54:02;;;;;;;;;;;15.60;99.90;;;;;;5313296;27;20025;-78
2022/03/28 08:56:32;;;;;;;;;;;16.00;99.90;;;;;;5311583;27;19966;-78
2022/03/28 08:59:05;;;;;;;;;;;16.00;99.90;;;;;;5312857;27;19915;-78
2022/03/28 09:01:37;;;;;;;;;;;15.40;99.90;;;;;;5311691;27;20016;-78
2022/03/28 09:04:08;;;;;;;;;;;16.30;99.90;;;;;;5313032;27;19942;-78
2022/03/28 09:06:41;;;;;;;;;;;16.50;99.90;;;;;;5311668;27;20366;-78
2022/03/28 09:09:13;;;;;;;;;;;16.30;99.90;;;;;;5312853;27;20412;-79
2022/03/28 09:11:44;;;;;;;;;;;16.40;99.90;;;;;;5312872;27;19911;-78
2022/03/28 09:14:28;;;;;;;;;;;16.20;99.90;;;;;;5311369;27;19926;-78
2022/03/28 09:17:09;;;;;;;;;;;16.80;99.90;;;;;;5312615;27;19904;-78
2022/03/28 09:19:44;;;;;;;;;;;16.10;99.90;;;;;;5312817;27;19903;-77
2022/03/28 09:22:16;;;;;;;;;;;16.50;99.90;;;;;;5312728;27;20373;-77
2022/03/28 09:24:48;;;;;;;;;;;17.00;99.90;;;;;;5311727;27;19945;-77
2022/03/28 09:27:20;;;;;;;;;;;16.40;99.90;;;;;;5311198;27;20385;-78
2022/03/28 09:30:01;;;;;;;;;;;16.80;99.90;;;;;;5311499;27;19903;-77
2022/03/28 09:32:33;;;;;;;;;;;17.30;99.90;;;;;;5312650;27;19910;-78
2022/03/28 09:35:03;;;;;;;;;;;17.00;99.90;;;;;;5312506;27;19904;-78
2022/03/28 09:37:46;;;;;;;;;;;17.00;99.90;;;;;;5312408;27;19918;-78
2022/03/28 09:40:28;;;;;;;;;;;17.60;99.90;;;;;;5312793;27;19903;-78
2022/03/28 09:42:59;;;;;;;;;;;17.40;99.90;;;;;;5312476;27;20307;-78
2022/03/28 09:45:32;;;;;;;;;;;17.70;99.90;;;;;;5312395;27;19903;-78
2022/03/28 09:48:06;;;;;;;;;;;17.90;99.90;;;;;;5311024;27;19907;-78
2022/03/28 09:50:37;;;;;;;;;;;17.90;99.90;;;;;;5295184;27;19907;-78
2022/03/28 09:53:14;;;;;;;;;;;18.10;99.90;;;;;;5290959;28;20002;-78
2022/03/28 09:55:49;;;;;;;;;;;18.00;99.90;;;;;;5290960;28;19966;-78
2022/03/28 09:58:39;;;;;;;;;;;18.10;99.90;;;;;;5291237;28;19922;-78
2022/03/28 10:01:13;;;;;;;;;;;18.20;99.90;;;;;;5290905;28;20240;-78
2022/03/28 10:03:45;;;;;;;;;;;18.00;99.90;;;;;;5290863;28;19911;-78
2022/03/28 10:06:16;;;;;;;;;;;18.50;99.90;;;;;;5290758;28;19904;-78
2022/03/28 10:08:47;;;;;;;;;;;17.80;99.90;;;;;;5289529;28;20343;-78
2022/03/28 10:11:18;;;;;;;;;;;18.10;99.90;;;;;;5289830;28;19915;-78
2022/03/28 10:13:49;;;;;;;;;;;17.80;99.90;;;;;;5289707;28;20332;-78
2022/03/28 10:16:19;;;;;;;;;;;17.80;99.90;;;;;;5288598;28;19904;-78
2022/03/28 10:18:50;;;;;;;;;;;17.50;99.90;;;;;;5290213;28;20412;-78
2022/03/28 10:21:22;;;;;;;;;;;17.80;99.90;;;;;;5290231;28;19904;-78
2022/03/28 10:24:13;;;;;;;;;;;17.50;99.90;;;;;;5290303;28;19903;-78
2022/03/28 10:26:51;;;;;;;;;;;17.70;99.90;;;;;;5286476;28;20354;-78
2022/03/28 10:29:22;;;;;;;;;;;17.80;99.90;;;;;;5290073;28;20002;-78
2022/03/28 10:31:56;;;;;;;;;;;18.20;99.90;;;;;;5290076;28;20267;-78
2022/03/28 10:34:39;;;;;;;;;;;17.50;99.90;;;;;;5290171;28;19986;-77
2022/03/28 10:37:29;;;;;;;;;;;17.70;99.90;;;;;;5292876;28;19906;-78
2022/03/28 10:40:15;;;;;;;;;;;17.50;99.90;;;;;;5294365;28;19939;-78
2022/03/28 10:42:52;;;;;;;;;;;17.80;99.90;;;;;;5294331;28;19939;-78
2022/03/28 10:45:31;;;;;;;;;;;17.40;99.90;;;;;;5294223;28;20364;-78
2022/03/28 10:48:02;;;;;;;;;;;17.60;99.90;;;;;;5294212;27;19991;-78
2022/03/28 10:50:33;;;;;;;;;;;17.80;99.90;;;;;;5293910;27;19907;-78
2022/03/28 10:53:05;;;;;;;;;;;18.00;99.90;;;;;;5294096;28;19903;-78
2022/03/28 10:55:42;;;;;;;;;;;17.90;99.90;;;;;;5293605;28;19923;-78
2022/03/28 10:58:23;;;;;;;;;;;18.40;99.90;;;;;;5285938;27;19923;-78
2022/03/28 11:01:12;;;;;;;;;;;18.40;99.90;;;;;;5284987;28;19904;-79
2022/03/28 11:04:02;;;;;;;;;;;19.00;99.90;;;;;;5294212;28;19957;-78
2022/03/28 11:06:49;;;;;;;;;;;18.80;99.90;;;;;;5285111;28;19911;-78
2022/03/28 11:09:38;;;;;;;;;;;18.40;99.90;;;;;;5273492;28;19904;-79
2022/03/28 11:12:13;;;;;;;;;;;18.90;99.90;;;;;;5272982;28;19904;-78
2022/03/28 11:14:55;;;;;;;;;;;18.70;99.90;;;;;;5271739;28;19904;-79
2022/03/28 11:17:29;;;;;;;;;;;18.70;99.90;;;;;;5272864;28;19912;-78
2022/03/28 11:20:07;;;;;;;;;;;17.80;99.90;;;;;;5278619;28;19945;-79
2022/03/28 11:22:39;;;;;;;;;;;18.40;99.90;;;;;;5293907;28;19918;-78
2022/03/28 11:25:28;;;;;;;;;;;18.90;99.90;;;;;;5293663;28;19907;-78
2022/03/28 11:28:09;;;;;;;;;;;19.00;99.90;;;;;;5293768;28;20351;-78
2022/03/28 11:30:46;;;;;;;;;;;18.90;99.90;;;;;;5293777;27;19957;-77
2022/03/28 11:33:18;;;;;;;;;;;19.00;99.90;;;;;;5293795;28;19994;-78
2022/03/28 11:36:00;;;;;;;;;;;19.00;99.90;;;;;;5293714;28;19903;-78
2022/03/28 11:38:36;;;;;;;;;;;19.20;99.90;;;;;;5293656;28;19911;-78
2022/03/28 11:41:08;;;;;;;;;;;18.70;99.90;;;;;;5293544;28;20240;-78
2022/03/28 11:43:40;;;;;;;;;;;19.30;99.90;;;;;;5293361;28;19903;-78
2022/03/28 11:46:14;;;;;;;;;;;19.30;99.90;;;;;;5293395;28;19911;-78
2022/03/28 11:49:05;;;;;;;;;;;19.30;99.90;;;;;;5292386;28;19903;-78
2022/03/28 11:51:37;;;;;;;;;;;19.40;99.90;;;;;;5293245;28;20437;-78
2022/03/28 11:54:08;;;;;;;;;;;19.10;99.90;;;;;;5288260;28;19904;-78
2022/03/28 11:59:30;;;;;;;;;;;19.10;99.90;;;;;;5271970;28;19923;-79
2022/03/28 12:02:02;;;;;;;;;;;19.50;99.90;;;;;;5271872;28;19958;-79
2022/03/28 12:04:33;;;;;;;;;;;19.60;99.90;;;;;;5271951;28;19994;-78
2022/03/28 12:07:03;;;;;;;;;;;19.00;99.90;;;;;;5270714;28;20011;-79
2022/03/28 12:09:40;;;;;;;;;;;19.30;99.90;;;;;;5271735;28;19918;-78
2022/03/28 12:12:11;;;;;;;;;;;18.80;99.90;;;;;;5271847;28;19950;-78
2022/03/28 12:14:42;;;;;;;;;;;19.70;99.90;;;;;;5271737;28;20367;-78
2022/03/28 12:17:23;;;;;;;;;;;19.10;99.90;;;;;;5270822;28;19934;-78
2022/03/28 12:20:01;;;;;;;;;;;18.20;99.90;;;;;;5271642;28;19919;-78
2022/03/28 12:22:42;;;;;;;;;;;18.60;99.90;;;;;;5271640;28;19911;-79
2022/03/28 12:25:28;;;;;;;;;;;19.00;99.90;;;;;;5271522;28;19965;-79
2022/03/28 12:28:00;;;;;;;;;;;18.70;99.90;;;;;;5270523;28;19908;-78
2022/03/28 12:30:35;;;;;;;;;;;18.40;99.90;;;;;;5271433;28;20317;-78
2022/03/28 12:33:11;;;;;;;;;;;18.60;99.90;;;;;;5271401;28;19935;-78
2022/03/28 12:35:46;;;;;;;;;;;18.80;99.90;;;;;;5271615;28;20045;-79
2022/03/28 12:38:19;;;;;;;;;;;18.10;99.90;;;;;;5311692;27;19938;-80
2022/03/28 12:40:58;;;;;;;;;;;18.50;99.90;;;;;;5312875;27;19942;-79
2022/03/28 12:43:29;;;;;;;;;;;18.40;99.90;;;;;;5312806;27;19989;-80
2022/03/28 12:46:04;;;;;;;;;;;18.30;99.90;;;;;;5312831;27;19900;-80
2022/03/28 12:48:41;;;;;;;;;;;18.10;99.90;;;;;;5312787;27;19910;-80
2022/03/28 12:51:20;;;;;;;;;;;17.60;99.90;;;;;;5312580;27;20386;-79
2022/03/28 12:54:00;;;;;;;;;;;17.80;99.90;;;;;;5311595;27;19903;-78
2022/03/28 12:56:45;;;;;;;;;;;17.90;99.90;;;;;;5312488;27;19915;-78
2022/03/28 12:59:17;;;;;;;;;;;17.50;99.90;;;;;;5312433;27;20378;-78
2022/03/28 13:01:48;;;;;;;;;;;17.70;99.90;;;;;;5312676;27;19907;-79
2022/03/28 13:04:21;;;;;;;;;;;17.60;99.90;;;;;;5294366;27;19907;-79
2022/03/28 13:07:02;;;;;;;;;;;17.60;99.90;;;;;;5312680;27;19903;-79
2022/03/28 13:09:32;;;;;;;;;;;16.60;99.90;;;;;;5312574;27;19908;-79
2022/03/28 13:12:07;;;;;;;;;;;16.80;99.90;;;;;;5312494;27;19907;-79
2022/03/28 13:14:45;;;;;;;;;;;16.80;99.90;;;;;;5312417;27;19903;-80
2022/03/28 13:17:19;;;;;;;;;;;16.60;99.90;;;;;;5284840;27;19993;-79
2022/03/28 13:19:56;;;;;;;;;;;16.30;99.90;;;;;;5269167;28;19959;-79
2022/03/28 13:22:27;;;;;;;;;;;16.50;99.90;;;;;;5270181;28;19904;-79
2022/03/28 13:25:06;;;;;;;;;;;16.10;99.90;;;;;;5268568;28;20027;-79
2022/03/28 13:30:28;;;;;;;;;;;16.50;99.90;;;;;;5269840;28;19911;-79
2022/03/28 13:33:00;;;;;;;;;;;16.50;99.90;;;;;;5269708;28;19904;-79
2022/03/28 13:35:31;;;;;;;;;;;16.60;99.90;;;;;;5269846;28;20276;-80
2022/03/28 13:38:04;;;;;;;;;;;16.30;99.90;;;;;;5268474;28;19944;-79
2022/03/28 13:40:35;;;;;;;;;;;16.60;99.90;;;;;;5270089;28;19904;-79
2022/03/28 13:43:10;;;;;;;;;;;17.00;99.90;;;;;;5268676;28;19904;-79
2022/03/28 13:45:41;;;;;;;;;;;16.70;99.90;;;;;;5270095;28;19998;-80
2022/03/28 13:48:13;;;;;;;;;;;16.80;99.90;;;;;;5269907;28;19911;-79
2022/03/28 13:50:46;;;;;;;;;;;16.40;99.90;;;;;;5269854;28;19904;-79
2022/03/28 13:53:16;;;;;;;;;;;16.30;99.90;;;;;;5269839;28;19908;-79
2022/03/28 13:55:47;;;;;;;;;;;15.50;99.90;;;;;;5269539;28;20378;-79
2022/03/28 13:58:18;;;;;;;;;;;15.30;99.90;;;;;;5269929;28;19916;-79
2022/03/28 14:00:48;;;;;;;;;;;15.60;99.90;;;;;;5269658;28;19904;-79
2022/03/28 14:03:19;;;;;;;;;;;15.30;99.90;;;;;;5269809;28;20280;-78
2022/03/28 14:05:51;;;;;;;;;;;15.10;99.90;;;;;;5269970;28;20403;-79
2022/03/28 14:08:22;;;;;;;;;;;15.10;99.90;;;;;;5269739;28;19905;-79
2022/03/28 14:10:53;;;;;;;;;;;15.10;99.90;;;;;;5268996;28;19912;-78
2022/03/28 14:13:24;;;;;;;;;;;15.00;99.90;;;;;;5269140;28;20003;-79
2022/03/28 14:15:57;;;;;;;;;;;14.90;99.90;;;;;;5269100;28;20068;-79
2022/03/28 14:18:28;;;;;;;;;;;14.80;99.90;;;;;;5267765;28;19912;-79
2022/03/28 14:20:59;;;;;;;;;;;15.00;99.90;;;;;;5269079;28;19911;-79
2022/03/28 14:23:29;;;;;;;;;;;14.90;99.90;;;;;;5269042;28;20378;-79
2022/03/28 14:26:01;;;;;;;;;;;15.10;99.90;;;;;;5268962;28;19938;-78
2022/03/28 14:28:32;;;;;;;;;;;15.30;99.90;;;;;;5269009;28;19947;-79
2022/03/28 14:31:03;;;;;;;;;;;15.60;99.90;;;;;;5268936;28;19955;-79
2022/03/28 14:33:34;;;;;;;;;;;15.60;99.90;;;;;;5268942;28;19911;-79
2022/03/28 14:36:05;;;;;;;;;;;15.90;99.90;;;;;;5267674;28;19911;-79
2022/03/28 14:38:36;;;;;;;;;;;15.90;99.90;;;;;;5269021;28;19916;-80
2022/03/28 14:41:06;;;;;;;;;;;15.70;99.90;;;;;;5268871;28;19904;-80
2022/03/28 14:43:38;;;;;;;;;;;15.40;99.90;;;;;;5268811;28;19904;-79
2022/03/28 14:48:58;;;;;;;;;;;15.80;99.90;;;;;;5268914;28;20049;-79
2022/03/28 14:51:29;;;;;;;;;;;16.40;99.90;;;;;;5267385;28;20002;-79
2022/03/28 14:54:00;;;;;;;;;;;16.10;99.90;;;;;;5267504;28;19904;-79
2022/03/28 14:56:30;;;;;;;;;;;16.00;99.90;;;;;;5267215;28;20390;-79
2022/03/28 14:59:01;;;;;;;;;;;16.00;99.90;;;;;;5268627;28;20275;-79
2022/03/28 15:01:32;;;;;;;;;;;16.00;99.90;;;;;;5267117;28;20351;-79
2022/03/28 15:04:04;;;;;;;;;;;16.00;99.90;;;;;;5268684;28;19961;-79